createdAt,value
2022-08-28T00:00:01.171Z,100.00
2022-08-28T00:02:27.781Z,100.00
2022-08-28T00:04:54.760Z,100.00
2022-08-28T00:07:22.324Z,100.00
2022-08-28T00:09:48.845Z,100.00
2022-08-28T00:12:15.242Z,100.00
2022-08-28T00:14:41.933Z,100.00
2022-08-28T00:17:08.465Z,100.00
2022-08-28T00:19:38.454Z,100.00
2022-08-28T00:22:06.100Z,100.00
2022-08-28T00:24:32.942Z,100.00
2022-08-28T00:27:18.462Z,100.00
2022-08-28T00:29:45.201Z,100.00
2022-08-28T00:32:11.828Z,100.00
2022-08-28T00:34:39.134Z,100.00
2022-08-28T00:37:07.297Z,100.00
2022-08-28T00:39:33.691Z,100.00
2022-08-28T00:42:00.342Z,100.00
2022-08-28T00:44:28.968Z,100.00
2022-08-28T00:46:57.610Z,100.00
2022-08-28T00:49:27.457Z,100.00
2022-08-28T00:52:12.431Z,100.00
2022-08-28T00:54:58.822Z,100.00
2022-08-28T00:57:30.725Z,100.00
2022-08-28T00:59:57.414Z,100.00
2022-08-28T01:02:23.891Z,100.00
2022-08-28T01:04:50.881Z,100.00
2022-08-28T01:07:18.079Z,100.00
2022-08-28T01:09:48.846Z,100.00
2022-08-28T01:12:19.479Z,100.00
2022-08-28T01:14:48.369Z,100.00
2022-08-28T01:17:17.535Z,100.00
2022-08-28T01:19:56.335Z,100.00
2022-08-28T01:22:28.989Z,100.00
2022-08-28T01:25:03.294Z,100.00
2022-08-28T01:27:29.946Z,100.00
2022-08-28T01:29:57.529Z,100.00
2022-08-28T01:32:42.430Z,100.00
2022-08-28T01:35:13.546Z,100.00
2022-08-28T01:37:39.976Z,100.00
2022-08-28T01:40:09.437Z,100.00
2022-08-28T01:42:41.008Z,100.00
2022-08-28T01:45:10.972Z,100.00
2022-08-28T01:47:39.168Z,100.00
2022-08-28T01:50:09.274Z,100.00
2022-08-28T01:52:36.390Z,100.00
2022-08-28T01:55:05.170Z,100.00
2022-08-28T01:57:31.723Z,100.00
2022-08-28T01:59:58.162Z,100.00
2022-08-28T02:02:24.575Z,100.00
2022-08-28T02:04:51.061Z,100.00
2022-08-28T02:07:17.620Z,100.00
2022-08-28T02:09:44.048Z,100.00
2022-08-28T02:12:10.776Z,100.00
2022-08-28T02:14:38.379Z,100.00
2022-08-28T02:17:04.896Z,100.00
2022-08-28T02:19:32.150Z,100.00
2022-08-28T02:21:58.552Z,100.00
2022-08-28T02:24:24.952Z,100.00
2022-08-28T02:26:51.391Z,100.00
2022-08-28T02:29:18.609Z,100.00
2022-08-28T02:31:44.998Z,100.00
2022-08-28T02:34:11.431Z,100.00
2022-08-28T02:36:41.962Z,100.00
2022-08-28T02:39:08.584Z,100.00
2022-08-28T02:41:35.173Z,100.00
2022-08-28T02:44:02.239Z,100.00
2022-08-28T02:46:28.748Z,100.00
2022-08-28T02:48:56.201Z,100.00
2022-08-28T02:51:22.881Z,100.00
2022-08-28T02:53:50.387Z,100.00
2022-08-28T02:56:16.783Z,100.00
2022-08-28T02:58:43.239Z,100.00
2022-08-28T03:01:11.956Z,100.00
2022-08-28T03:03:39.714Z,100.00
2022-08-28T03:06:09.312Z,100.00
2022-08-28T03:08:35.802Z,100.00
2022-08-28T03:11:02.208Z,100.00
2022-08-28T03:13:30.028Z,100.00
2022-08-28T03:15:56.886Z,100.00
2022-08-28T03:18:25.373Z,100.00
2022-08-28T03:20:52.882Z,100.00
2022-08-28T03:23:28.195Z,100.00
2022-08-28T03:26:02.099Z,100.00
2022-08-28T03:28:32.750Z,100.00
2022-08-28T03:30:59.453Z,100.00
2022-08-28T03:33:27.167Z,100.00
2022-08-28T03:35:55.149Z,100.00
2022-08-28T03:38:22.185Z,100.00
2022-08-28T03:40:49.119Z,100.00
2022-08-28T03:43:19.928Z,100.00
2022-08-28T03:45:58.893Z,100.00
2022-08-28T03:48:27.919Z,100.00
2022-08-28T03:50:55.333Z,100.00
2022-08-28T03:53:24.986Z,100.00
2022-08-28T03:55:52.294Z,100.00
2022-08-28T03:58:19.355Z,100.00
2022-08-28T04:00:46.678Z,100.00
2022-08-28T04:03:13.607Z,100.00
2022-08-28T04:05:41.603Z,100.00
2022-08-28T04:08:08.693Z,100.00
2022-08-28T04:10:36.625Z,100.00
2022-08-28T04:13:03.462Z,100.00
2022-08-28T04:15:30.129Z,100.00
2022-08-28T04:17:56.530Z,100.00
2022-08-28T04:20:22.991Z,100.00
2022-08-28T04:22:49.891Z,100.00
2022-08-28T04:25:22.362Z,100.00
2022-08-28T04:27:50.305Z,100.00
2022-08-28T04:30:16.884Z,100.00
2022-08-28T04:32:43.406Z,100.00
2022-08-28T04:35:12.830Z,100.00
2022-08-28T04:37:40.203Z,100.00
2022-08-28T04:40:11.814Z,100.00
2022-08-28T04:42:39.887Z,100.00
2022-08-28T04:45:07.570Z,100.00
2022-08-28T04:47:37.918Z,100.00
2022-08-28T04:50:06.451Z,100.00
2022-08-28T04:52:32.872Z,100.00
2022-08-28T04:54:59.265Z,100.00
2022-08-28T04:57:26.183Z,100.00
2022-08-28T04:59:52.570Z,100.00
2022-08-28T05:02:19.025Z,100.00
2022-08-28T05:04:45.508Z,100.00
2022-08-28T05:07:11.898Z,100.00
2022-08-28T05:09:38.933Z,100.00
2022-08-28T05:12:05.899Z,100.00
2022-08-28T05:14:32.420Z,100.00
2022-08-28T05:16:58.995Z,100.00
2022-08-28T05:19:27.751Z,100.00
2022-08-28T05:21:54.895Z,100.00
2022-08-28T05:24:22.382Z,100.00
2022-08-28T05:26:49.117Z,100.00
2022-08-28T05:29:16.825Z,100.00
2022-08-28T05:31:44.102Z,100.00
2022-08-28T05:34:12.611Z,100.00
2022-08-28T05:36:39.479Z,100.00
2022-08-28T05:39:09.181Z,100.00
2022-08-28T05:41:36.172Z,100.00
2022-08-28T05:44:05.797Z,100.00
2022-08-28T05:46:33.507Z,100.00
2022-08-28T05:49:00.392Z,100.00
2022-08-28T05:51:27.619Z,100.00
2022-08-28T05:53:57.444Z,100.00
2022-08-28T05:56:29.563Z,100.00
2022-08-28T05:58:57.716Z,100.00
2022-08-28T06:01:30.222Z,100.00
2022-08-28T06:04:05.134Z,100.00
2022-08-28T06:06:34.418Z,100.00
2022-08-28T06:09:04.919Z,100.00
2022-08-28T06:11:32.606Z,100.00
2022-08-28T06:14:01.779Z,100.00
2022-08-28T06:16:32.137Z,100.00
2022-08-28T06:18:59.154Z,100.00
2022-08-28T06:21:26.018Z,100.00
2022-08-28T06:23:52.459Z,100.00
2022-08-28T06:26:18.870Z,100.00
2022-08-28T06:28:45.296Z,100.00
2022-08-28T06:31:23.361Z,100.00
2022-08-28T06:33:52.219Z,100.00
2022-08-28T06:36:18.609Z,100.00
2022-08-28T06:38:46.700Z,100.00
2022-08-28T06:41:15.423Z,100.00
2022-08-28T06:43:42.008Z,100.00
2022-08-28T06:46:08.560Z,100.00
2022-08-28T06:48:35.144Z,100.00
2022-08-28T06:51:04.994Z,100.00
2022-08-28T06:53:31.431Z,100.00
2022-08-28T06:56:08.377Z,100.00
2022-08-28T06:58:41.347Z,100.00
2022-08-28T07:01:32.925Z,100.00
2022-08-28T07:04:09.013Z,100.00
2022-08-28T07:06:38.014Z,100.00
2022-08-28T07:09:07.344Z,100.00
2022-08-28T07:11:35.251Z,100.00
2022-08-28T07:14:03.021Z,97.12
2022-08-28T07:16:37.929Z,93.93
2022-08-28T07:19:05.827Z,92.61
2022-08-28T07:21:38.162Z,77.68
2022-08-28T07:24:06.805Z,75.52
2022-08-28T07:26:33.954Z,76.93
2022-08-28T07:29:10.297Z,72.79
2022-08-28T07:31:44.336Z,76.61
2022-08-28T07:34:13.475Z,73.64
2022-08-28T07:36:40.299Z,69.60
2022-08-28T07:39:08.332Z,69.28
2022-08-28T07:41:39.041Z,68.30
2022-08-28T07:44:24.984Z,68.99
2022-08-28T07:46:56.393Z,63.94
2022-08-28T07:49:24.177Z,63.37
2022-08-28T07:51:50.684Z,65.52
2022-08-28T07:54:20.961Z,62.98
2022-08-28T07:56:47.391Z,63.92
2022-08-28T07:59:16.986Z,66.13
2022-08-28T08:01:46.281Z,66.38
2022-08-28T08:04:13.278Z,64.59
2022-08-28T08:06:41.061Z,62.91
2022-08-28T08:09:11.144Z,60.75
2022-08-28T08:11:38.091Z,59.98
2022-08-28T08:14:05.899Z,58.19
2022-08-28T08:16:39.263Z,58.04
2022-08-28T08:19:06.480Z,57.07
2022-08-28T08:21:32.868Z,60.20
2022-08-28T08:23:59.592Z,63.05
2022-08-28T08:26:30.633Z,69.11
2022-08-28T08:28:57.263Z,72.24
2022-08-28T08:31:27.567Z,72.98
2022-08-28T08:33:57.239Z,75.85
2022-08-28T08:36:25.746Z,74.08
2022-08-28T08:38:59.277Z,72.33
2022-08-28T08:41:34.515Z,67.38
2022-08-28T08:44:09.751Z,65.09
2022-08-28T08:47:03.576Z,62.30
2022-08-28T08:49:35.924Z,59.90
2022-08-28T08:52:11.479Z,55.49
2022-08-28T08:54:42.886Z,55.66
2022-08-28T08:57:12.855Z,55.16
2022-08-28T08:59:39.939Z,54.85
2022-08-28T09:02:14.935Z,53.06
2022-08-28T09:04:50.555Z,51.51
2022-08-28T09:07:21.015Z,51.72
2022-08-28T09:09:53.391Z,51.70
2022-08-28T09:12:23.107Z,51.96
2022-08-28T09:15:05.253Z,49.91
2022-08-28T09:17:35.776Z,52.13
2022-08-28T09:20:02.380Z,56.96
2022-08-28T09:22:28.768Z,58.86
2022-08-28T09:24:55.511Z,56.21
2022-08-28T09:27:29.149Z,53.82
2022-08-28T09:29:58.919Z,52.87
2022-08-28T09:32:34.222Z,54.26
2022-08-28T09:35:01.149Z,56.62
2022-08-28T09:37:32.010Z,57.03
2022-08-28T09:40:15.853Z,60.07
2022-08-28T09:43:25.425Z,62.99
2022-08-28T09:45:59.612Z,64.87
2022-08-28T09:48:35.619Z,65.56
2022-08-28T09:51:08.783Z,66.76
2022-08-28T09:53:56.389Z,64.51
2022-08-28T09:56:27.235Z,60.42
2022-08-28T09:58:57.169Z,56.08
2022-08-28T10:01:41.200Z,52.21
2022-08-28T10:04:22.886Z,55.07
2022-08-28T10:06:54.857Z,56.69
2022-08-28T10:09:30.998Z,60.88
2022-08-28T10:12:08.666Z,65.90
2022-08-28T10:14:52.694Z,68.69
2022-08-28T10:17:39.320Z,69.34
2022-08-28T10:20:22.310Z,69.08
2022-08-28T10:22:51.661Z,69.56
2022-08-28T10:25:30.517Z,67.32
2022-08-28T10:28:14.950Z,64.38
2022-08-28T10:30:53.421Z,58.99
2022-08-28T10:33:39.674Z,55.84
2022-08-28T10:36:27.399Z,53.78
2022-08-28T10:39:19.239Z,53.89
2022-08-28T10:41:48.771Z,54.44
2022-08-28T10:44:24.450Z,52.09
2022-08-28T10:46:58.347Z,49.39
2022-08-28T10:49:31.832Z,49.93
2022-08-28T10:52:05.146Z,50.20
2022-08-28T10:54:46.992Z,52.14
2022-08-28T10:57:39.958Z,54.52
2022-08-28T11:00:18.165Z,54.76
2022-08-28T11:02:50.412Z,51.41
2022-08-28T11:05:23.214Z,49.65
2022-08-28T11:07:55.267Z,51.72
2022-08-28T11:10:36.835Z,51.81
2022-08-28T11:13:06.269Z,53.83
2022-08-28T11:15:36.992Z,53.52
2022-08-28T11:18:16.136Z,54.00
2022-08-28T11:21:10.886Z,51.62
2022-08-28T11:23:47.083Z,51.97
2022-08-28T11:26:23.134Z,53.76
2022-08-28T11:28:49.831Z,53.07
2022-08-28T11:31:24.692Z,53.86
2022-08-28T11:33:58.899Z,51.02
2022-08-28T11:36:29.844Z,49.65
2022-08-28T11:38:56.325Z,52.07
2022-08-28T11:41:33.424Z,49.63
2022-08-28T11:44:17.810Z,47.83
2022-08-28T11:46:51.951Z,49.70
2022-08-28T11:49:27.359Z,49.47
2022-08-28T11:52:20.496Z,52.64
2022-08-28T11:55:01.977Z,54.98
2022-08-28T12:00:52.603Z,51.49
2022-08-28T12:03:38.216Z,52.74
2022-08-28T12:06:06.644Z,49.94
2022-08-28T12:08:44.939Z,48.46
2022-08-28T12:11:40.754Z,47.43
2022-08-28T12:14:13.088Z,46.42
2022-08-28T12:17:00.916Z,47.50
2022-08-28T12:19:32.206Z,50.37
2022-08-28T12:22:04.956Z,51.35
2022-08-28T12:24:31.400Z,51.56
2022-08-28T12:26:59.070Z,50.10
2022-08-28T12:29:29.315Z,50.05
2022-08-28T12:32:25.469Z,50.24
2022-08-28T12:34:57.562Z,49.53
2022-08-28T12:37:50.952Z,51.78
2022-08-28T12:40:41.218Z,53.83
2022-08-28T12:43:10.699Z,53.21
2022-08-28T12:45:53.669Z,50.22
2022-08-28T12:48:27.615Z,51.10
2022-08-28T12:51:05.119Z,50.67
2022-08-28T12:53:47.166Z,50.46
2022-08-28T12:56:17.543Z,48.95
2022-08-28T12:58:45.469Z,48.96
2022-08-28T13:01:25.756Z,51.04
2022-08-28T13:03:57.388Z,49.90
2022-08-28T13:06:30.976Z,48.31
2022-08-28T13:09:01.147Z,49.08
2022-08-28T13:11:34.312Z,50.79
2022-08-28T13:14:00.863Z,49.96
2022-08-28T13:16:42.148Z,50.34
2022-08-28T13:19:23.463Z,51.41
2022-08-28T13:22:01.844Z,52.07
2022-08-28T13:24:31.272Z,51.68
2022-08-28T13:27:12.119Z,52.72
2022-08-28T13:29:59.697Z,50.07
2022-08-28T13:32:30.205Z,49.81
2022-08-28T13:35:20.504Z,49.49
2022-08-28T13:37:52.428Z,51.07
2022-08-28T13:40:56.506Z,50.63
2022-08-28T13:43:16.503Z,50.85
2022-08-28T13:45:48.073Z,53.58
2022-08-28T13:48:17.484Z,52.21
2022-08-28T13:50:47.351Z,54.62
2022-08-28T13:53:16.751Z,55.90
2022-08-28T13:55:43.798Z,56.90
2022-08-28T13:58:10.614Z,58.31
2022-08-28T14:00:43.336Z,56.09
2022-08-28T14:03:28.467Z,55.13
2022-08-28T14:05:54.927Z,56.63
2022-08-28T14:08:21.888Z,57.67
2022-08-28T14:10:48.780Z,60.33
2022-08-28T14:13:15.273Z,61.22
2022-08-28T14:15:41.756Z,60.45
2022-08-28T14:18:08.190Z,60.98
2022-08-28T14:20:34.600Z,61.11
2022-08-28T14:23:00.999Z,63.23
2022-08-28T14:25:27.395Z,63.73
2022-08-28T14:27:55.667Z,63.39
2022-08-28T14:30:22.800Z,63.27
2022-08-28T14:32:49.212Z,63.01
2022-08-28T14:35:15.603Z,64.14
2022-08-28T14:37:42.031Z,61.95
2022-08-28T14:40:09.937Z,61.26
2022-08-28T14:42:36.410Z,62.76
2022-08-28T14:45:02.938Z,62.76
2022-08-28T14:47:29.402Z,64.53
2022-08-28T14:49:55.850Z,65.17
2022-08-28T14:52:22.833Z,64.26
2022-08-28T14:54:49.240Z,63.66
2022-08-28T14:57:15.746Z,64.12
2022-08-28T14:59:42.216Z,63.02
2022-08-28T15:02:08.627Z,64.58
2022-08-28T15:04:37.644Z,64.25
2022-08-28T15:07:08.440Z,64.30
2022-08-28T15:09:37.376Z,64.17
2022-08-28T15:12:04.303Z,64.37
2022-08-28T15:14:31.311Z,64.88
2022-08-28T15:16:57.781Z,64.60
2022-08-28T15:19:24.437Z,64.91
2022-08-28T15:21:53.839Z,65.30
2022-08-28T15:24:26.959Z,65.14
2022-08-28T15:26:53.747Z,65.89
2022-08-28T15:29:20.500Z,66.73
2022-08-28T15:31:49.097Z,67.32
2022-08-28T15:34:18.695Z,67.50
2022-08-28T15:36:54.663Z,67.93
2022-08-28T15:39:42.536Z,67.02
2022-08-28T15:42:09.892Z,66.60
2022-08-28T15:44:37.331Z,66.68
2022-08-28T15:47:04.940Z,67.82
2022-08-28T15:49:38.941Z,66.46
2022-08-28T15:52:13.638Z,66.15
2022-08-28T15:54:41.274Z,68.02
2022-08-28T15:57:07.846Z,65.61
2022-08-28T15:59:44.148Z,63.89
2022-08-28T16:02:15.955Z,62.80
2022-08-28T16:04:42.412Z,63.98
2022-08-28T16:07:08.864Z,63.74
2022-08-28T16:09:35.368Z,63.13
2022-08-28T16:12:01.782Z,61.66
2022-08-28T16:14:28.309Z,63.45
2022-08-28T16:16:54.784Z,63.65
2022-08-28T16:19:21.363Z,63.32
2022-08-28T16:21:47.773Z,63.47
2022-08-28T16:24:14.189Z,64.14
2022-08-28T16:26:40.899Z,66.38
2022-08-28T16:29:07.467Z,67.59
2022-08-28T16:31:34.323Z,67.59
2022-08-28T16:34:02.945Z,66.28
2022-08-28T16:36:30.196Z,68.37
2022-08-28T16:39:00.435Z,70.33
2022-08-28T16:41:31.858Z,73.75
2022-08-28T16:43:58.695Z,75.29
2022-08-28T16:46:27.055Z,76.37
2022-08-28T16:48:54.419Z,74.85
2022-08-28T16:51:21.475Z,74.38
2022-08-28T16:53:48.228Z,73.54
2022-08-28T16:56:17.205Z,73.86
2022-08-28T16:58:44.868Z,72.68
2022-08-28T17:01:12.872Z,71.96
2022-08-28T17:03:40.220Z,70.69
2022-08-28T17:06:11.327Z,68.40
2022-08-28T17:08:37.754Z,68.71
2022-08-28T17:11:06.446Z,68.87
2022-08-28T17:13:33.876Z,69.63
2022-08-28T17:16:00.670Z,69.80
2022-08-28T17:18:27.119Z,68.88
2022-08-28T17:21:12.902Z,67.92
2022-08-28T17:23:39.367Z,68.12
2022-08-28T17:26:06.175Z,68.23
2022-08-28T17:28:32.610Z,67.31
2022-08-28T17:30:59.346Z,67.34
2022-08-28T17:33:25.893Z,67.99
2022-08-28T17:35:55.039Z,68.55
2022-08-28T17:38:21.888Z,68.89
2022-08-28T17:40:48.295Z,69.38
2022-08-28T17:43:14.779Z,70.76
2022-08-28T17:45:41.183Z,71.71
2022-08-28T17:48:07.660Z,72.71
2022-08-28T17:50:35.322Z,74.24
2022-08-28T17:53:01.708Z,75.85
2022-08-28T17:55:28.248Z,77.63
2022-08-28T17:57:55.043Z,80.02
2022-08-28T18:00:21.642Z,80.72
2022-08-28T18:02:52.125Z,81.46
2022-08-28T18:05:18.533Z,81.51
2022-08-28T18:07:45.193Z,81.90
2022-08-28T18:10:12.419Z,81.94
2022-08-28T18:12:40.622Z,81.13
2022-08-28T18:15:09.763Z,80.37
2022-08-28T18:17:38.061Z,80.03
2022-08-28T18:20:06.545Z,79.98
2022-08-28T18:22:32.947Z,77.30
2022-08-28T18:24:59.379Z,76.93
2022-08-28T18:27:27.804Z,77.07
2022-08-28T18:29:54.313Z,77.80
2022-08-28T18:32:20.783Z,77.00
2022-08-28T18:34:47.325Z,77.36
2022-08-28T18:37:13.767Z,76.00
2022-08-28T18:39:40.346Z,76.19
2022-08-28T18:42:09.360Z,77.13
2022-08-28T18:44:35.805Z,77.87
2022-08-28T18:47:02.249Z,78.71
2022-08-28T18:49:28.654Z,79.62
2022-08-28T18:51:55.084Z,79.25
2022-08-28T18:54:21.847Z,80.48
2022-08-28T18:56:49.700Z,80.02
2022-08-28T18:59:17.306Z,81.35
2022-08-28T19:01:43.947Z,81.10
2022-08-28T19:04:10.525Z,80.92
2022-08-28T19:06:36.955Z,81.54
2022-08-28T19:09:05.557Z,81.06
2022-08-28T19:11:32.137Z,80.37
2022-08-28T19:13:59.442Z,80.57
2022-08-28T19:16:31.634Z,80.17
2022-08-28T19:18:58.064Z,79.28
2022-08-28T19:21:24.624Z,79.69
2022-08-28T19:23:55.925Z,79.92
2022-08-28T19:26:24.484Z,79.01
2022-08-28T19:28:51.470Z,79.51
2022-08-28T19:31:18.255Z,80.64
2022-08-28T19:33:46.393Z,80.63
2022-08-28T19:36:13.663Z,80.89
2022-08-28T19:38:40.597Z,79.88
2022-08-28T19:41:09.545Z,79.62
2022-08-28T19:43:42.929Z,79.46
2022-08-28T19:46:18.718Z,79.68
2022-08-28T19:48:48.551Z,80.93
2022-08-28T19:51:17.671Z,81.53
2022-08-28T19:53:56.746Z,81.54
2022-08-28T19:56:26.996Z,83.20
2022-08-28T19:58:55.015Z,81.94
2022-08-28T20:01:21.518Z,81.69
2022-08-28T20:03:47.962Z,82.37
2022-08-28T20:06:14.490Z,82.53
2022-08-28T20:08:40.989Z,82.21
2022-08-28T20:11:07.761Z,81.54
2022-08-28T20:13:34.847Z,80.13
2022-08-28T20:16:05.520Z,79.87
2022-08-28T20:18:33.314Z,78.29
2022-08-28T20:20:59.895Z,78.79
2022-08-28T20:23:26.280Z,78.90
2022-08-28T20:25:52.852Z,78.62
2022-08-28T20:28:19.407Z,79.50
2022-08-28T20:30:46.876Z,79.58
2022-08-28T20:33:14.055Z,79.80
2022-08-28T20:35:40.656Z,80.34
2022-08-28T20:38:07.178Z,81.13
2022-08-28T20:40:33.778Z,79.63
2022-08-28T20:43:00.710Z,82.11
2022-08-28T20:45:27.356Z,81.17
2022-08-28T20:47:53.991Z,81.34
2022-08-28T20:50:20.571Z,81.67
2022-08-28T20:52:46.968Z,81.85
2022-08-28T20:55:14.802Z,81.13
2022-08-28T20:57:41.371Z,81.25
2022-08-28T21:00:10.602Z,81.46
2022-08-28T21:02:37.312Z,82.50
2022-08-28T21:05:04.951Z,83.09
2022-08-28T21:07:33.355Z,82.13
2022-08-28T21:10:06.941Z,82.90
2022-08-28T21:12:35.560Z,83.17
2022-08-28T21:15:02.325Z,83.11
2022-08-28T21:17:30.679Z,81.78
2022-08-28T21:20:00.164Z,81.42
2022-08-28T21:22:26.877Z,83.00
2022-08-28T21:24:53.487Z,82.78
2022-08-28T21:27:19.944Z,82.73
2022-08-28T21:29:47.784Z,83.78
2022-08-28T21:32:14.218Z,83.01
2022-08-28T21:34:40.604Z,84.59
2022-08-28T21:37:06.979Z,83.87
2022-08-28T21:39:33.802Z,82.77
2022-08-28T21:42:00.533Z,83.58
2022-08-28T21:44:26.920Z,83.58
2022-08-28T21:46:53.386Z,83.86
2022-08-28T21:49:20.344Z,85.39
2022-08-28T21:51:47.011Z,86.21
2022-08-28T21:54:13.570Z,88.85
2022-08-28T21:56:40.060Z,91.10
2022-08-28T21:59:06.485Z,92.10
2022-08-28T22:01:33.016Z,93.23
2022-08-28T22:03:59.476Z,97.44
2022-08-28T22:06:26.864Z,100.00
2022-08-28T22:08:54.585Z,100.00
2022-08-28T22:11:24.818Z,100.00
2022-08-28T22:13:52.483Z,100.00
2022-08-28T22:16:19.107Z,100.00
2022-08-28T22:18:45.585Z,100.00
2022-08-28T22:21:35.955Z,100.00
2022-08-28T22:24:02.559Z,100.00
2022-08-28T22:26:29.401Z,100.00
2022-08-28T22:28:56.096Z,100.00
2022-08-28T22:31:22.595Z,100.00
2022-08-28T22:33:49.135Z,100.00
2022-08-28T22:36:17.317Z,100.00
2022-08-28T22:38:47.104Z,100.00
2022-08-28T22:41:20.208Z,100.00
2022-08-28T22:43:48.271Z,100.00
2022-08-28T22:46:17.080Z,100.00
2022-08-28T22:48:43.590Z,100.00
2022-08-28T22:51:12.779Z,100.00
2022-08-28T22:53:41.491Z,100.00
2022-08-28T22:56:09.876Z,100.00
2022-08-28T22:58:37.140Z,100.00
2022-08-28T23:01:24.591Z,100.00
2022-08-28T23:03:51.138Z,100.00
2022-08-28T23:06:18.092Z,100.00
2022-08-28T23:08:44.534Z,100.00
2022-08-28T23:11:11.368Z,100.00
2022-08-28T23:13:38.362Z,100.00
2022-08-28T23:16:05.683Z,100.00
2022-08-28T23:18:46.410Z,100.00
2022-08-28T23:21:20.586Z,100.00
2022-08-28T23:23:47.125Z,100.00
2022-08-28T23:26:15.814Z,100.00
2022-08-28T23:28:43.010Z,100.00
2022-08-28T23:31:10.095Z,100.00
2022-08-28T23:33:36.590Z,100.00
2022-08-28T23:36:03.496Z,100.00
2022-08-28T23:38:30.183Z,100.00
2022-08-28T23:40:56.654Z,100.00
2022-08-28T23:43:23.290Z,100.00
2022-08-28T23:45:49.889Z,100.00
2022-08-28T23:48:16.718Z,100.00
2022-08-28T23:50:43.626Z,100.00
2022-08-28T23:53:10.991Z,100.00
2022-08-28T23:55:38.196Z,100.00
2022-08-28T23:58:05.355Z,100.00
